createdAt,value
2022-11-19T00:00:09.803Z,8.65
2022-11-19T00:02:38.142Z,10.18
2022-11-19T00:05:06.721Z,8.57
2022-11-19T00:07:35.053Z,8.82
2022-11-19T00:10:05.434Z,7.88
2022-11-19T00:12:51.176Z,11.93
2022-11-19T00:15:19.486Z,11.73
2022-11-19T00:17:47.818Z,8.85
2022-11-19T00:20:17.681Z,10.73
2022-11-19T00:22:46.055Z,8.73
2022-11-19T00:25:15.766Z,7.55
2022-11-19T00:27:44.109Z,10.35
2022-11-19T00:30:40.294Z,10.20
2022-11-19T00:33:02.066Z,15.18
2022-11-19T00:35:30.383Z,11.53
2022-11-19T00:37:58.689Z,10.85
2022-11-19T00:40:28.432Z,10.82
2022-11-19T00:43:13.982Z,10.43
2022-11-19T00:45:44.626Z,10.10
2022-11-19T00:48:13.032Z,12.65
2022-11-19T00:50:41.280Z,9.87
2022-11-19T00:53:09.783Z,10.75
2022-11-19T00:55:40.419Z,9.55
2022-11-19T00:58:08.864Z,11.13
2022-11-19T01:00:38.193Z,9.10
2022-11-19T01:03:06.881Z,10.73
2022-11-19T01:05:35.178Z,11.68
2022-11-19T01:08:03.699Z,11.25
2022-11-19T01:10:32.135Z,14.82
2022-11-19T01:13:19.498Z,14.03
2022-11-19T01:15:49.968Z,9.82
2022-11-19T01:18:19.593Z,9.55
2022-11-19T01:20:48.486Z,10.68
2022-11-19T01:23:16.869Z,10.45
2022-11-19T01:25:45.298Z,10.85
2022-11-19T01:28:15.212Z,13.48
2022-11-19T01:30:44.509Z,8.77
2022-11-19T01:33:13.357Z,9.53
2022-11-19T01:35:41.775Z,12.73
2022-11-19T01:38:10.631Z,9.55
2022-11-19T01:40:45.747Z,12.23
2022-11-19T01:43:15.720Z,12.52
2022-11-19T01:45:48.249Z,10.13
2022-11-19T01:48:20.368Z,10.23
2022-11-19T01:50:52.330Z,7.85
2022-11-19T01:53:22.206Z,8.80
2022-11-19T01:55:51.600Z,9.20
2022-11-19T01:58:25.407Z,9.98
2022-11-19T02:00:53.792Z,12.40
2022-11-19T02:03:22.276Z,13.23
2022-11-19T02:05:51.424Z,16.47
2022-11-19T02:08:39.003Z,11.02
2022-11-19T02:11:34.278Z,9.15
2022-11-19T02:14:14.245Z,9.77
2022-11-19T02:16:52.683Z,11.35
2022-11-19T02:19:54.958Z,9.98
2022-11-19T02:22:45.394Z,10.85
2022-11-19T02:25:25.461Z,8.85
2022-11-19T02:28:16.466Z,9.05
2022-11-19T02:30:50.316Z,8.07
2022-11-19T02:33:26.962Z,9.20
2022-11-19T02:36:00.857Z,7.35
2022-11-19T02:38:35.631Z,8.50
2022-11-19T02:41:25.507Z,8.63
2022-11-19T02:44:21.094Z,10.35
2022-11-19T02:46:54.330Z,13.13
2022-11-19T02:49:27.151Z,9.68
2022-11-19T02:51:56.162Z,10.52
2022-11-19T02:54:24.789Z,8.10
2022-11-19T02:56:54.660Z,8.52
2022-11-19T02:59:46.546Z,7.95
2022-11-19T03:02:36.574Z,10.63
2022-11-19T03:05:08.279Z,8.25
2022-11-19T03:07:37.265Z,7.00
2022-11-19T03:10:09.795Z,8.55
2022-11-19T03:12:50.228Z,6.90
2022-11-19T03:15:46.661Z,7.72
2022-11-19T03:18:20.818Z,5.90
2022-11-19T03:20:54.376Z,8.45
2022-11-19T03:23:26.383Z,7.15
2022-11-19T03:25:58.144Z,6.75
2022-11-19T03:28:32.110Z,10.25
2022-11-19T03:31:02.233Z,8.45
2022-11-19T03:33:35.363Z,11.23
2022-11-19T03:36:10.148Z,4.87
2022-11-19T03:38:43.905Z,5.68
2022-11-19T03:41:16.384Z,5.97
2022-11-19T03:43:48.646Z,5.70
2022-11-19T03:46:19.689Z,5.82
2022-11-19T03:48:52.784Z,8.53
2022-11-19T03:51:27.522Z,10.57
2022-11-19T03:53:55.976Z,8.23
2022-11-19T03:56:27.814Z,5.78
2022-11-19T03:58:56.381Z,5.20
2022-11-19T04:01:24.853Z,10.32
2022-11-19T04:04:08.463Z,9.52
2022-11-19T04:06:36.742Z,7.13
2022-11-19T04:09:05.248Z,7.57
2022-11-19T04:11:33.511Z,6.28
2022-11-19T04:14:01.769Z,6.20
2022-11-19T04:16:30.108Z,7.43
2022-11-19T04:18:59.847Z,6.70
2022-11-19T04:21:28.093Z,7.63
2022-11-19T04:23:56.363Z,7.68
2022-11-19T04:26:24.651Z,7.57
2022-11-19T04:28:53.372Z,8.50
2022-11-19T04:31:21.911Z,6.50
2022-11-19T04:33:50.225Z,5.60
2022-11-19T04:36:19.995Z,5.50
2022-11-19T04:38:48.284Z,4.85
2022-11-19T04:41:16.569Z,6.00
2022-11-19T04:43:44.922Z,6.83
2022-11-19T04:46:13.258Z,6.18
2022-11-19T04:48:41.586Z,7.70
2022-11-19T04:51:09.812Z,5.77
2022-11-19T04:53:39.814Z,5.68
2022-11-19T04:56:08.720Z,7.83
2022-11-19T04:58:37.469Z,6.90
2022-11-19T05:01:06.151Z,6.53
2022-11-19T05:03:34.477Z,9.32
2022-11-19T05:06:02.853Z,8.13
2022-11-19T05:08:31.156Z,6.45
2022-11-19T05:11:00.991Z,6.45
2022-11-19T05:13:29.286Z,5.45
2022-11-19T05:15:57.658Z,7.53
2022-11-19T05:18:26.036Z,9.85
2022-11-19T05:20:54.376Z,8.13
2022-11-19T05:23:22.802Z,6.88
2022-11-19T05:25:51.136Z,8.05
2022-11-19T05:28:32.763Z,8.15
2022-11-19T05:31:07.146Z,7.03
2022-11-19T05:33:35.577Z,7.35
2022-11-19T05:36:03.936Z,8.87
2022-11-19T05:38:32.332Z,6.43
2022-11-19T05:41:00.555Z,6.75
2022-11-19T05:43:30.464Z,6.37
2022-11-19T05:46:01.300Z,5.70
2022-11-19T05:48:29.998Z,6.32
2022-11-19T05:50:58.432Z,7.72
2022-11-19T05:53:27.481Z,7.97
2022-11-19T05:55:55.806Z,5.90
2022-11-19T05:58:24.142Z,5.63
2022-11-19T06:00:57.104Z,7.88
2022-11-19T06:03:25.659Z,5.15
2022-11-19T06:05:54.290Z,5.45
2022-11-19T06:08:22.721Z,6.50
2022-11-19T06:10:50.999Z,5.40
2022-11-19T06:13:19.429Z,4.43
2022-11-19T06:15:47.849Z,5.55
2022-11-19T06:18:17.730Z,4.68
2022-11-19T06:20:46.104Z,6.53
2022-11-19T06:23:14.472Z,7.32
2022-11-19T06:25:42.853Z,5.20
2022-11-19T06:28:11.115Z,6.63
2022-11-19T06:30:40.646Z,5.47
2022-11-19T06:33:08.863Z,6.43
2022-11-19T06:35:38.583Z,8.15
2022-11-19T06:38:06.960Z,5.70
2022-11-19T06:40:35.334Z,6.23
2022-11-19T06:43:03.560Z,5.47
2022-11-19T06:45:31.990Z,8.23
2022-11-19T06:48:00.284Z,6.00
2022-11-19T06:50:28.759Z,7.57
2022-11-19T06:52:58.774Z,5.50
2022-11-19T06:55:27.671Z,5.43
2022-11-19T06:57:57.736Z,5.47
2022-11-19T07:00:26.170Z,4.97
2022-11-19T07:02:54.599Z,5.10
2022-11-19T07:05:22.864Z,6.07
2022-11-19T07:07:51.360Z,6.53
2022-11-19T07:10:21.427Z,5.43
2022-11-19T07:12:49.902Z,4.50
2022-11-19T07:15:18.415Z,6.10
2022-11-19T07:17:46.733Z,8.77
2022-11-19T07:20:15.264Z,6.10
2022-11-19T07:22:43.673Z,5.87
2022-11-19T07:25:13.522Z,4.63
2022-11-19T07:27:46.723Z,6.07
2022-11-19T07:30:16.031Z,4.05
2022-11-19T07:32:44.483Z,4.25
2022-11-19T07:35:13.213Z,7.03
2022-11-19T07:37:41.492Z,7.15
2022-11-19T07:40:11.763Z,5.40
2022-11-19T07:42:51.006Z,8.73
2022-11-19T07:45:22.434Z,8.32
2022-11-19T07:47:51.235Z,5.55
2022-11-19T07:50:20.133Z,5.97
2022-11-19T07:52:48.653Z,8.53
2022-11-19T07:55:17.146Z,6.97
2022-11-19T07:57:45.669Z,6.50
2022-11-19T08:00:15.383Z,6.30
2022-11-19T08:02:45.152Z,5.90
2022-11-19T08:05:13.568Z,7.57
2022-11-19T08:07:42.461Z,4.95
2022-11-19T08:10:12.076Z,7.43
2022-11-19T08:12:40.466Z,5.95
2022-11-19T08:15:10.125Z,6.93
2022-11-19T08:17:56.104Z,6.10
2022-11-19T08:20:25.870Z,7.38
2022-11-19T08:22:54.138Z,5.17
2022-11-19T08:25:22.473Z,7.05
2022-11-19T08:27:51.379Z,5.82
2022-11-19T08:30:19.779Z,6.75
2022-11-19T08:32:48.166Z,4.57
2022-11-19T08:35:17.470Z,6.13
2022-11-19T08:37:48.269Z,6.80
2022-11-19T08:40:17.221Z,5.07
2022-11-19T08:43:00.020Z,6.20
2022-11-19T08:45:30.733Z,5.53
2022-11-19T08:48:00.688Z,7.93
2022-11-19T08:50:29.923Z,7.40
2022-11-19T08:53:01.295Z,6.13
2022-11-19T08:55:30.937Z,7.63
2022-11-19T08:58:03.271Z,6.20
2022-11-19T09:00:32.042Z,6.88
2022-11-19T09:03:00.684Z,7.78
2022-11-19T09:05:30.248Z,7.07
2022-11-19T09:08:00.114Z,8.05
2022-11-19T09:10:29.044Z,10.40
2022-11-19T09:12:57.385Z,8.93
2022-11-19T09:15:25.754Z,9.75
2022-11-19T09:17:54.099Z,12.17
2022-11-19T09:20:22.575Z,9.43
2022-11-19T09:22:50.902Z,8.73
2022-11-19T09:25:20.716Z,7.22
2022-11-19T09:27:49.085Z,8.55
2022-11-19T09:30:17.665Z,6.38
2022-11-19T09:32:46.564Z,8.25
2022-11-19T09:35:15.311Z,7.70
2022-11-19T09:37:43.691Z,7.13
2022-11-19T09:40:17.035Z,6.75
2022-11-19T09:42:55.458Z,8.02
2022-11-19T09:45:32.539Z,6.10
2022-11-19T09:48:12.281Z,6.90
2022-11-19T09:50:53.239Z,5.90
2022-11-19T09:53:24.087Z,7.03
2022-11-19T09:55:55.129Z,7.95
2022-11-19T09:58:32.174Z,5.53
2022-11-19T10:01:01.609Z,8.80
2022-11-19T10:03:33.726Z,6.47
2022-11-19T10:06:19.788Z,5.57
2022-11-19T10:09:19.785Z,5.17
2022-11-19T10:11:59.037Z,7.38
2022-11-19T10:14:44.927Z,6.40
2022-11-19T10:17:28.279Z,7.27
2022-11-19T10:20:09.904Z,6.85
2022-11-19T10:22:41.612Z,5.68
2022-11-19T10:25:18.231Z,6.68
2022-11-19T10:27:51.620Z,6.95
2022-11-19T10:30:24.363Z,6.03
2022-11-19T10:32:58.884Z,7.82
2022-11-19T10:35:33.556Z,8.70
2022-11-19T10:38:05.411Z,7.43
2022-11-19T10:40:41.232Z,8.93
2022-11-19T10:43:22.011Z,5.97
2022-11-19T10:45:53.402Z,7.35
2022-11-19T10:48:23.947Z,4.72
2022-11-19T10:50:52.745Z,6.78
2022-11-19T10:53:26.712Z,3.72
2022-11-19T10:55:58.937Z,5.60
2022-11-19T10:58:30.751Z,8.15
2022-11-19T11:01:03.584Z,6.60
2022-11-19T11:03:36.090Z,3.13
2022-11-19T11:06:06.940Z,3.50
2022-11-19T11:08:46.495Z,2.65
2022-11-19T11:11:15.293Z,2.28
2022-11-19T11:14:01.547Z,5.47
2022-11-19T11:16:45.291Z,3.50
2022-11-19T11:19:16.349Z,3.70
2022-11-19T11:21:45.724Z,6.03
2022-11-19T11:24:15.173Z,4.18
2022-11-19T11:26:43.772Z,4.05
2022-11-19T11:29:27.201Z,7.22
2022-11-19T11:31:57.015Z,4.13
2022-11-19T11:34:34.750Z,2.85
2022-11-19T11:37:05.647Z,4.75
2022-11-19T11:39:36.130Z,3.57
2022-11-19T11:42:06.718Z,5.40
2022-11-19T11:44:38.505Z,5.10
2022-11-19T11:47:14.156Z,5.03
2022-11-19T11:49:44.530Z,4.68
2022-11-19T11:52:20.091Z,5.87
2022-11-19T11:54:59.887Z,4.50
2022-11-19T11:57:30.041Z,7.60
2022-11-19T11:59:58.446Z,3.75
2022-11-19T12:02:31.439Z,5.97
2022-11-19T12:05:02.910Z,7.53
2022-11-19T12:07:56.495Z,4.97
2022-11-19T12:10:33.023Z,4.25
2022-11-19T12:13:26.671Z,3.00
2022-11-19T12:16:01.194Z,5.70
2022-11-19T12:18:41.379Z,4.32
2022-11-19T12:21:12.337Z,3.92
2022-11-19T12:24:07.934Z,6.47
2022-11-19T12:26:45.633Z,3.00
2022-11-19T12:29:22.821Z,4.45
2022-11-19T12:32:07.583Z,5.47
2022-11-19T12:34:53.973Z,2.00
2022-11-19T12:37:35.949Z,5.07
2022-11-19T12:40:19.135Z,5.53
2022-11-19T12:43:00.028Z,6.78
2022-11-19T12:45:38.924Z,6.05
2022-11-19T12:48:29.986Z,5.90
2022-11-19T12:51:09.344Z,3.97
2022-11-19T12:54:07.026Z,4.40
2022-11-19T12:56:46.712Z,6.60
2022-11-19T12:59:32.666Z,2.88
2022-11-19T13:02:04.363Z,6.45
2022-11-19T13:04:40.576Z,4.85
2022-11-19T13:07:16.408Z,5.60
2022-11-19T13:09:49.253Z,5.35
2022-11-19T13:12:20.954Z,5.60
2022-11-19T13:14:55.267Z,4.82
2022-11-19T13:17:27.593Z,7.53
2022-11-19T13:19:59.372Z,5.50
2022-11-19T13:22:34.101Z,8.45
2022-11-19T13:25:06.791Z,4.45
2022-11-19T13:27:35.579Z,3.92
2022-11-19T13:30:05.792Z,4.15
2022-11-19T13:32:40.522Z,3.90
2022-11-19T13:35:20.899Z,5.20
2022-11-19T13:37:59.033Z,4.70
2022-11-19T13:40:32.353Z,4.07
2022-11-19T13:43:32.056Z,4.60
2022-11-19T13:46:09.140Z,2.38
2022-11-19T13:48:41.834Z,4.38
2022-11-19T13:51:28.231Z,3.33
2022-11-19T13:54:03.086Z,4.03
2022-11-19T13:56:47.714Z,6.88
2022-11-19T13:59:36.889Z,5.15
2022-11-19T14:02:41.913Z,5.57
2022-11-19T14:05:34.077Z,5.40
2022-11-19T14:08:20.481Z,2.97
2022-11-19T14:11:05.069Z,4.60
2022-11-19T14:13:45.941Z,5.15
2022-11-19T14:16:42.083Z,7.30
2022-11-19T14:19:33.001Z,5.80
2022-11-19T14:22:19.035Z,2.97
2022-11-19T14:25:15.410Z,5.25
2022-11-19T14:27:46.184Z,5.63
2022-11-19T14:30:17.765Z,5.40
2022-11-19T14:32:48.866Z,5.03
2022-11-19T14:35:44.796Z,4.90
2022-11-19T14:38:36.367Z,4.22
2022-11-19T14:41:30.825Z,7.27
2022-11-19T14:44:13.048Z,5.85
2022-11-19T14:46:46.951Z,3.90
2022-11-19T14:49:34.713Z,4.95
2022-11-19T14:52:04.244Z,3.95
2022-11-19T14:54:36.985Z,6.40
2022-11-19T14:57:08.955Z,6.35
2022-11-19T14:59:40.232Z,4.00
2022-11-19T15:02:24.695Z,5.55
2022-11-19T15:04:58.949Z,4.00
2022-11-19T15:07:39.643Z,5.13
2022-11-19T15:10:37.764Z,3.17
2022-11-19T15:13:28.259Z,4.00
2022-11-19T15:16:03.299Z,3.63
2022-11-19T15:19:25.081Z,2.45
2022-11-19T15:22:32.949Z,3.47
2022-11-19T15:25:19.649Z,3.47
2022-11-19T15:27:59.656Z,3.33
2022-11-19T15:30:39.324Z,3.42
2022-11-19T15:33:33.976Z,4.38
2022-11-19T15:36:20.283Z,3.83
2022-11-19T15:38:53.937Z,2.80
2022-11-19T15:41:25.597Z,2.83
2022-11-19T15:43:57.148Z,3.67
2022-11-19T15:46:35.500Z,1.85
2022-11-19T15:49:12.078Z,3.90
2022-11-19T15:51:56.486Z,2.35
2022-11-19T15:54:29.783Z,3.20
2022-11-19T15:57:00.418Z,15.57
2022-11-19T15:59:30.427Z,14.05
2022-11-19T16:02:01.186Z,4.50
2022-11-19T16:04:37.843Z,6.53
2022-11-19T16:07:09.062Z,3.83
2022-11-19T16:09:38.754Z,4.80
2022-11-19T16:12:24.643Z,4.93
2022-11-19T16:15:11.771Z,3.50
2022-11-19T16:17:45.106Z,3.53
2022-11-19T16:20:23.984Z,5.10
2022-11-19T16:22:59.123Z,6.50
2022-11-19T16:25:34.618Z,4.35
2022-11-19T16:28:07.178Z,3.90
2022-11-19T16:30:46.341Z,4.00
2022-11-19T16:33:18.905Z,3.88
2022-11-19T16:35:52.915Z,6.80
2022-11-19T16:38:28.286Z,5.80
2022-11-19T16:41:15.720Z,7.10
2022-11-19T16:43:48.705Z,5.40
2022-11-19T16:46:21.614Z,4.10
2022-11-19T16:48:59.125Z,5.57
2022-11-19T16:51:37.819Z,5.65
2022-11-19T16:54:08.067Z,4.70
2022-11-19T16:56:41.599Z,5.63
2022-11-19T16:59:19.551Z,5.13
2022-11-19T17:01:56.057Z,4.70
2022-11-19T17:04:27.614Z,5.88
2022-11-19T17:06:58.689Z,3.88
2022-11-19T17:09:33.542Z,4.55
2022-11-19T17:12:20.012Z,4.20
2022-11-19T17:14:52.141Z,6.68
2022-11-19T17:17:40.399Z,6.43
2022-11-19T17:20:55.237Z,6.35
2022-11-19T17:23:26.336Z,6.40
2022-11-19T17:25:57.268Z,6.13
2022-11-19T17:28:36.138Z,7.30
2022-11-19T17:31:07.880Z,7.93
2022-11-19T17:33:37.105Z,7.70
2022-11-19T17:36:05.778Z,6.53
2022-11-19T17:38:38.311Z,7.72
2022-11-19T17:41:08.027Z,9.65
2022-11-19T17:43:55.677Z,7.70
2022-11-19T17:46:25.286Z,10.53
2022-11-19T17:48:54.376Z,8.88
2022-11-19T17:51:24.692Z,6.97
2022-11-19T17:53:55.691Z,9.20
2022-11-19T17:56:26.409Z,5.40
2022-11-19T17:58:55.118Z,7.57
2022-11-19T18:01:23.938Z,7.47
2022-11-19T18:03:52.651Z,7.40
2022-11-19T18:06:21.436Z,11.00
2022-11-19T18:08:49.790Z,5.70
2022-11-19T18:11:21.929Z,8.30
2022-11-19T18:13:52.502Z,9.57
2022-11-19T18:16:22.212Z,6.05
2022-11-19T18:18:50.655Z,7.78
2022-11-19T18:21:21.959Z,7.15
2022-11-19T18:23:52.475Z,8.40
2022-11-19T18:26:23.895Z,5.63
2022-11-19T18:28:52.456Z,5.88
2022-11-19T18:31:22.734Z,8.82
2022-11-19T18:33:51.573Z,5.73
2022-11-19T18:36:20.071Z,8.20
2022-11-19T18:38:48.730Z,7.13
2022-11-19T18:41:19.810Z,8.75
2022-11-19T18:44:15.594Z,10.38
2022-11-19T18:46:43.909Z,5.75
2022-11-19T18:49:12.408Z,8.70
2022-11-19T18:51:42.490Z,7.82
2022-11-19T18:54:12.606Z,8.98
2022-11-19T18:56:41.234Z,7.32
2022-11-19T18:59:12.433Z,10.20
2022-11-19T19:01:41.192Z,11.00
2022-11-19T19:04:14.201Z,11.57
2022-11-19T19:06:43.293Z,11.52
2022-11-19T19:09:11.781Z,13.65
2022-11-19T19:11:57.637Z,23.20
2022-11-19T19:14:27.377Z,24.88
2022-11-19T19:16:55.974Z,39.47
2022-11-19T19:19:24.306Z,51.07
2022-11-19T19:21:52.752Z,83.80
2022-11-19T19:24:21.989Z,84.85
2022-11-19T19:26:50.273Z,57.92
2022-11-19T19:29:18.640Z,59.97
2022-11-19T19:31:48.398Z,51.88
2022-11-19T19:34:17.043Z,34.75
2022-11-19T19:36:50.305Z,12.52
2022-11-19T19:39:21.889Z,19.75
2022-11-19T19:41:50.577Z,33.13
2022-11-19T19:44:19.003Z,44.72
2022-11-19T19:46:50.664Z,64.65
2022-11-19T19:49:19.650Z,103.43
2022-11-19T19:51:48.584Z,54.97
2022-11-19T19:54:17.012Z,56.25
2022-11-19T19:56:45.354Z,59.27
2022-11-19T19:59:14.833Z,30.75
2022-11-19T20:01:46.170Z,17.67
2022-11-19T20:04:16.147Z,42.97
2022-11-19T20:06:47.270Z,17.92
2022-11-19T20:09:16.117Z,8.52
2022-11-19T20:11:44.494Z,7.95
2022-11-19T20:14:13.090Z,6.78
2022-11-19T20:16:42.898Z,7.32
2022-11-19T20:19:15.908Z,6.53
2022-11-19T20:21:44.509Z,5.55
2022-11-19T20:24:13.735Z,5.22
2022-11-19T20:26:43.488Z,7.80
2022-11-19T20:29:14.685Z,9.35
2022-11-19T20:31:47.817Z,10.30
2022-11-19T20:34:18.125Z,15.02
2022-11-19T20:36:46.569Z,9.20
2022-11-19T20:39:15.061Z,6.67
2022-11-19T20:42:06.430Z,6.20
2022-11-19T20:44:34.809Z,10.70
2022-11-19T20:47:04.472Z,11.85
2022-11-19T20:49:39.538Z,12.98
2022-11-19T20:52:08.753Z,11.77
2022-11-19T20:54:37.442Z,14.52
2022-11-19T20:57:05.971Z,11.52
2022-11-19T20:59:34.440Z,11.30
2022-11-19T21:02:03.087Z,7.78
2022-11-19T21:04:36.585Z,6.60
2022-11-19T21:07:06.819Z,8.85
2022-11-19T21:09:35.356Z,18.45
2022-11-19T21:12:03.637Z,13.88
2022-11-19T21:14:31.987Z,11.95
2022-11-19T21:17:00.752Z,10.30
2022-11-19T21:19:29.071Z,12.32
2022-11-19T21:21:57.389Z,13.07
2022-11-19T21:24:27.414Z,12.88
2022-11-19T21:26:56.208Z,8.38
2022-11-19T21:29:24.543Z,9.57
2022-11-19T21:31:52.856Z,10.60
2022-11-19T21:34:21.668Z,11.18
2022-11-19T21:36:50.548Z,13.15
2022-11-19T21:39:20.831Z,6.22
2022-11-19T21:41:50.817Z,6.70
2022-11-19T21:44:21.726Z,6.00
2022-11-19T21:46:50.518Z,5.50
2022-11-19T21:49:19.604Z,4.82
2022-11-19T21:51:49.127Z,5.90
2022-11-19T21:54:17.510Z,4.35
2022-11-19T21:56:45.813Z,6.80
2022-11-19T21:59:15.634Z,5.75
2022-11-19T22:01:44.010Z,6.88
2022-11-19T22:04:13.782Z,12.50
2022-11-19T22:06:42.309Z,6.25
2022-11-19T22:09:10.563Z,7.38
2022-11-19T22:11:38.841Z,8.60
2022-11-19T22:14:09.712Z,7.25
2022-11-19T22:16:41.504Z,7.03
2022-11-19T22:19:11.935Z,18.40
2022-11-19T22:21:40.453Z,6.22
2022-11-19T22:24:08.849Z,5.47
2022-11-19T22:26:37.138Z,4.82
2022-11-19T22:29:05.438Z,3.90
2022-11-19T22:31:33.743Z,4.05
2022-11-19T22:34:03.519Z,2.40
2022-11-19T22:36:33.415Z,3.90
2022-11-19T22:39:01.792Z,2.65
2022-11-19T22:41:30.222Z,5.00
2022-11-19T22:43:59.478Z,3.30
2022-11-19T22:46:28.016Z,3.78
2022-11-19T22:48:56.352Z,4.47
2022-11-19T22:51:27.176Z,7.03
2022-11-19T22:53:56.559Z,4.03
2022-11-19T22:56:26.766Z,4.85
2022-11-19T22:58:55.804Z,3.13
2022-11-19T23:01:26.508Z,3.45
2022-11-19T23:03:55.474Z,2.67
2022-11-19T23:06:26.056Z,3.00
2022-11-19T23:08:55.087Z,3.90
2022-11-19T23:11:38.304Z,5.03
2022-11-19T23:14:07.797Z,2.75
2022-11-19T23:16:36.224Z,4.55
2022-11-19T23:19:04.632Z,2.17
2022-11-19T23:21:34.477Z,3.92
2022-11-19T23:24:03.009Z,3.30
2022-11-19T23:26:33.053Z,3.05
2022-11-19T23:29:01.646Z,4.75
2022-11-19T23:31:31.760Z,5.05
2022-11-19T23:34:00.361Z,4.15
2022-11-19T23:36:30.767Z,6.97
2022-11-19T23:39:00.930Z,6.00
2022-11-19T23:41:29.847Z,6.30
2022-11-19T23:43:58.161Z,4.75
2022-11-19T23:46:28.555Z,5.70
2022-11-19T23:48:57.962Z,6.75
2022-11-19T23:51:28.433Z,5.15
2022-11-19T23:53:57.592Z,7.82
2022-11-19T23:56:28.409Z,6.10
2022-11-19T23:58:56.749Z,7.82
